Storm Events Database

Event Details

Event Hail
Magnitude 1.75 in.
State KANSAS
County/Area SCOTT
WFO DDC
Report Source Public
NCDC Data Source CSV
Begin Date 2008-05-08 15:25:00.0 CST-6
Begin Location 5SSW MODOC
Begin Lat/Lon 38.41/-101.11
End Date 2008-05-08 15:25:00.0 CST-6
Deaths Direct/Indirect 0/0 (fatality details below, when available...)
Injuries Direct/Indirect 0/0
Property Damage
Crop Damage
Episode Narrative A strong upper system in the westerlies combined with a strong subtropical jet over southwest Kansas. At the surface there was a dryline and front intersection allowing deep convective initiation.
Event Narrative


     ‚Äč



All events for this episode:

Location County/Zone St. Date Time T.Z. Type Mag Dth Inj PrD CrD
Totals: 0 0 24.50K 0.00K
MODOC SCOTT CO. KS 05/08/2008 15:25 CST-6 Hail 1.75 in. 0 0 0.00K 0.00K
MODOC SCOTT CO. KS 05/08/2008 15:30 CST-6 Hail 0.88 in. 0 0 0.00K 0.00K
SHALLOW WATER SCOTT CO. KS 05/08/2008 15:30 CST-6 Hail 1.00 in. 0 0 0.00K 0.00K
GRIGSTON SCOTT CO. KS 05/08/2008 16:15 CST-6 Hail 2.75 in. 0 0 0.00K 0.00K
DIGHTON LANE CO. KS 05/08/2008 16:35 CST-6 Hail 0.75 in. 0 0 0.00K 0.00K
HEALY LANE CO. KS 05/08/2008 17:08 CST-6 Thunderstorm Wind 50 kts. EG 0 0 0.00K 0.00K
ALAMOTA LANE CO. KS 05/08/2008 17:14 CST-6 Hail 1.50 in. 0 0 0.00K 0.00K
MACKSVILLE STAFFORD CO. KS 05/08/2008 17:17 CST-6 Hail 1.00 in. 0 0 0.00K 0.00K
JETMORE HODGEMAN CO. KS 05/08/2008 17:20 CST-6 Funnel Cloud 0 0 0.00K 0.00K
AMY LANE CO. KS 05/08/2008 17:22 CST-6 Thunderstorm Wind 70 kts. EG 0 0 0.00K 0.00K
DIGHTON LANE CO. KS 05/08/2008 17:22 CST-6 Hail 1.00 in. 0 0 0.00K 0.00K
ALAMOTA LANE CO. KS 05/08/2008 17:33 CST-6 Hail 1.00 in. 0 0 0.00K 0.00K
JETMORE HODGEMAN CO. KS 05/08/2008 17:35 CST-6 Hail 1.50 in. 0 0 0.00K 0.00K
JETMORE HODGEMAN CO. KS 05/08/2008 17:38 CST-6 Hail 1.00 in. 0 0 0.00K 0.00K
ALAMOTA LANE CO. KS 05/08/2008 17:40 CST-6 Hail 1.00 in. 0 0 0.00K 0.00K
JETMORE HODGEMAN CO. KS 05/08/2008 17:45 CST-6 Hail 1.75 in. 0 0 0.00K 0.00K
JETMORE HODGEMAN CO. KS 05/08/2008 17:51 CST-6 Thunderstorm Wind 56 kts. EG 0 0 0.00K 0.00K
JETMORE HODGEMAN CO. KS 05/08/2008 17:53 CST-6 Hail 1.75 in. 0 0 0.00K 0.00K
JETMORE HODGEMAN CO. KS 05/08/2008 17:55 CST-6 Hail 1.75 in. 0 0 0.00K 0.00K
UTICA NESS CO. KS 05/08/2008 17:55 CST-6 Hail 1.00 in. 0 0 0.00K 0.00K
JETMORE HODGEMAN CO. KS 05/08/2008 18:00 CST-6 Thunderstorm Wind 65 kts. EG 0 0 3.00K 0.00K
HANSTON HODGEMAN CO. KS 05/08/2008 18:02 CST-6 Hail 1.75 in. 0 0 0.00K 0.00K
HANSTON HODGEMAN CO. KS 05/08/2008 18:03 CST-6 Hail 2.50 in. 0 0 0.00K 0.00K
BEELER NESS CO. KS 05/08/2008 18:05 CST-6 Hail 0.75 in. 0 0 0.00K 0.00K
JETMORE HODGEMAN CO. KS 05/08/2008 18:10 CST-6 Hail 2.75 in. 0 0 0.00K 0.00K
HANSTON HODGEMAN CO. KS 05/08/2008 18:13 CST-6 Hail 2.00 in. 0 0 0.00K 0.00K
HANSTON HODGEMAN CO. KS 05/08/2008 18:15 CST-6 Thunderstorm Wind 65 kts. EG 0 0 3.00K 0.00K
HANSTON HODGEMAN CO. KS 05/08/2008 18:20 CST-6 Hail 1.75 in. 0 0 0.00K 0.00K
JETMORE HODGEMAN CO. KS 05/08/2008 18:20 CST-6 Hail 1.75 in. 0 0 0.00K 0.00K
KINSLEY MUNI ARPT EDWARDS CO. KS 05/08/2008 18:25 CST-6 Thunderstorm Wind 78 kts. EG 0 0 0.00K 0.00K
JETMORE HODGEMAN CO. KS 05/08/2008 18:30 CST-6 Hail 2.50 in. 0 0 0.00K 0.00K
SEWARD (ZONE) SEWARD (ZONE) KS 05/08/2008 18:35 CST-6 High Wind 61 kts. MG 0 0 0.00K 0.00K
NETTLETON EDWARDS CO. KS 05/08/2008 18:37 CST-6 Hail 1.75 in. 0 0 0.00K 0.00K
LEWIS EDWARDS CO. KS 05/08/2008 18:43 CST-6 Thunderstorm Wind 70 kts. EG 0 0 0.00K 0.00K
KINSLEY MUNI ARPT EDWARDS CO. KS 05/08/2008 18:53 CST-6 Hail 2.50 in. 0 0 0.00K 0.00K
KINSLEY MUNI ARPT EDWARDS CO. KS 05/08/2008 18:57 CST-6 Hail 2.50 in. 0 0 0.00K 0.00K
HANSTON HODGEMAN CO. KS 05/08/2008 19:03 CST-6 Thunderstorm Wind 56 kts. EG 0 0 0.00K 0.00K
HANSTON HODGEMAN CO. KS 05/08/2008 19:03 CST-6 Hail 1.00 in. 0 0 0.00K 0.00K
LEWIS EDWARDS CO. KS 05/08/2008 19:06 CST-6 Thunderstorm Wind 61 kts. EG 0 0 0.00K 0.00K
MACKSVILLE STAFFORD CO. KS 05/08/2008 19:10 CST-6 Thunderstorm Wind 70 kts. EG 0 0 0.00K 0.00K
MACKSVILLE STAFFORD CO. KS 05/08/2008 19:12 CST-6 Hail 0.75 in. 0 0 0.00K 0.00K
DODGE CITY FORD CO. KS 05/08/2008 19:16 CST-6 Hail 0.75 in. 0 0 0.00K 0.00K
BELPRE EDWARDS CO. KS 05/08/2008 19:20 CST-6 Thunderstorm Wind 61 kts. EG 0 0 0.00K 0.00K
KINSLEY EDWARDS CO. KS 05/08/2008 19:20 CST-6 Thunderstorm Wind 65 kts. EG 0 0 1.50K 0.00K
BELPRE EDWARDS CO. KS 05/08/2008 19:23 CST-6 Thunderstorm Wind 65 kts. EG 0 0 2.00K 0.00K
WINDTHORST FORD CO. KS 05/08/2008 19:29 CST-6 Hail 0.75 in. 0 0 0.00K 0.00K
BELPRE EDWARDS CO. KS 05/08/2008 19:32 CST-6 Hail 1.00 in. 0 0 0.00K 0.00K
GREENSBURG KIOWA CO. KS 05/08/2008 19:45 CST-6 Hail 0.88 in. 0 0 0.00K 0.00K
ST JOHN STAFFORD CO. KS 05/08/2008 19:49 CST-6 Hail 1.00 in. 0 0 0.00K 0.00K
STAFFORD STAFFORD CO. KS 05/08/2008 19:55 CST-6 Hail 1.75 in. 0 0 0.00K 0.00K
CULLISON PRATT CO. KS 05/08/2008 20:19 CST-6 Hail 1.00 in. 0 0 0.00K 0.00K
CULLISON PRATT CO. KS 05/08/2008 20:19 CST-6 Thunderstorm Wind 56 kts. EG 0 0 0.00K 0.00K
BUTTERMILK COMANCHE CO. KS 05/08/2008 20:20 CST-6 Hail 1.75 in. 0 0 0.00K 0.00K
ST JOHN STAFFORD CO. KS 05/08/2008 20:37 CST-6 Thunderstorm Wind 52 kts. EG 0 0 0.00K 0.00K
ST JOHN STAFFORD CO. KS 05/08/2008 21:15 CST-6 Flood 0 0 15.00K 0.00K
Totals: 0 0 24.50K 0.00K